createdAt,value
2022-08-30T00:00:04.069Z,99.90
2022-08-30T00:01:56.410Z,99.90
2022-08-30T00:03:41.267Z,99.90
2022-08-30T00:05:17.392Z,99.90
2022-08-30T00:06:49.535Z,99.90
2022-08-30T00:08:22.172Z,99.90
2022-08-30T00:09:54.721Z,99.90
2022-08-30T00:11:29.161Z,99.90
2022-08-30T00:14:54.335Z,99.90
2022-08-30T00:16:26.998Z,99.90
2022-08-30T00:17:59.672Z,99.90
2022-08-30T00:19:31.972Z,99.90
2022-08-30T00:21:06.745Z,99.90
2022-08-30T00:22:39.254Z,99.90
2022-08-30T00:24:11.508Z,99.90
2022-08-30T00:25:45.033Z,99.90
2022-08-30T00:27:17.337Z,99.90
2022-08-30T00:28:49.730Z,99.90
2022-08-30T00:30:22.747Z,99.90
2022-08-30T00:31:54.993Z,99.90
2022-08-30T00:33:27.673Z,99.90
2022-08-30T00:35:00.311Z,99.90
2022-08-30T00:36:32.468Z,99.90
2022-08-30T00:38:04.839Z,99.90
2022-08-30T00:39:36.996Z,99.90
2022-08-30T00:41:09.589Z,99.90
2022-08-30T00:42:44.647Z,99.90
2022-08-30T00:44:22.752Z,99.90
2022-08-30T00:45:56.203Z,99.90
2022-08-30T00:47:28.696Z,99.90
2022-08-30T00:49:07.003Z,99.90
2022-08-30T00:50:57.864Z,99.90
2022-08-30T00:52:30.339Z,99.90
2022-08-30T00:54:04.084Z,99.90
2022-08-30T00:55:37.243Z,99.90
2022-08-30T00:57:14.419Z,99.90
2022-08-30T00:58:52.329Z,99.90
2022-08-30T01:00:25.166Z,99.90
2022-08-30T01:01:57.930Z,99.90
2022-08-30T01:03:31.546Z,99.90
2022-08-30T01:05:10.759Z,99.90
2022-08-30T01:06:48.359Z,99.90
2022-08-30T01:08:22.387Z,99.90
2022-08-30T01:09:55.494Z,99.90
2022-08-30T01:11:29.172Z,99.90
2022-08-30T01:13:01.639Z,99.90
2022-08-30T01:14:34.671Z,99.90
2022-08-30T01:16:08.154Z,99.90
2022-08-30T01:17:47.800Z,99.90
2022-08-30T01:19:51.434Z,99.90
2022-08-30T01:21:50.827Z,99.90
2022-08-30T01:23:27.170Z,99.90
2022-08-30T01:25:02.564Z,99.90
2022-08-30T01:26:36.743Z,99.90
2022-08-30T01:28:18.440Z,99.90
2022-08-30T01:29:51.413Z,99.90
2022-08-30T01:31:23.948Z,99.90
2022-08-30T01:33:03.664Z,99.90
2022-08-30T01:34:35.839Z,99.90
2022-08-30T01:36:13.166Z,99.90
2022-08-30T01:37:47.120Z,99.90
2022-08-30T01:39:19.416Z,99.90
2022-08-30T01:40:57.610Z,99.90
2022-08-30T01:42:30.227Z,99.90
2022-08-30T01:44:08.746Z,99.90
2022-08-30T01:45:41.781Z,99.90
2022-08-30T01:47:15.228Z,99.90
2022-08-30T01:48:50.269Z,99.90
2022-08-30T01:50:26.439Z,99.90
2022-08-30T01:52:00.864Z,99.90
2022-08-30T01:53:33.704Z,99.90
2022-08-30T01:55:07.271Z,99.90
2022-08-30T01:56:40.372Z,99.90
2022-08-30T01:58:13.134Z,99.90
2022-08-30T01:59:47.767Z,99.90
2022-08-30T02:01:25.871Z,99.90
2022-08-30T02:02:58.835Z,99.90
2022-08-30T02:04:31.496Z,99.90
2022-08-30T02:06:08.979Z,99.90
2022-08-30T02:07:41.709Z,99.90
2022-08-30T02:09:13.950Z,99.90
2022-08-30T02:10:46.201Z,99.90
2022-08-30T02:12:18.943Z,99.90
2022-08-30T02:13:51.532Z,99.90
2022-08-30T02:15:23.662Z,99.90
2022-08-30T02:16:56.364Z,99.90
2022-08-30T02:18:28.704Z,99.90
2022-08-30T02:20:01.332Z,99.90
2022-08-30T02:21:34.415Z,99.90
2022-08-30T02:23:06.762Z,99.90
2022-08-30T02:24:39.279Z,99.90
2022-08-30T02:26:13.315Z,99.90
2022-08-30T02:27:45.527Z,99.90
2022-08-30T02:29:17.675Z,99.90
2022-08-30T02:30:50.366Z,99.90
2022-08-30T02:32:22.827Z,99.90
2022-08-30T02:33:55.349Z,99.90
2022-08-30T02:35:27.784Z,99.90
2022-08-30T02:37:00.989Z,99.90
2022-08-30T02:38:35.480Z,99.90
2022-08-30T02:40:08.531Z,99.90
2022-08-30T02:41:41.999Z,99.90
2022-08-30T02:43:14.788Z,99.90
2022-08-30T02:44:47.198Z,99.90
2022-08-30T02:46:19.547Z,99.90
2022-08-30T02:47:51.981Z,99.90
2022-08-30T02:49:33.230Z,99.90
2022-08-30T02:51:11.995Z,99.90
2022-08-30T02:52:45.305Z,99.90
2022-08-30T02:54:20.843Z,99.90
2022-08-30T02:55:52.991Z,99.90
2022-08-30T02:57:25.662Z,99.90
2022-08-30T02:58:58.046Z,99.90
2022-08-30T03:00:30.967Z,99.90
2022-08-30T03:02:03.298Z,99.90
2022-08-30T03:03:36.448Z,99.90
2022-08-30T03:05:13.027Z,99.90
2022-08-30T03:06:45.219Z,99.90
2022-08-30T03:08:17.587Z,99.90
2022-08-30T03:09:50.020Z,99.90
2022-08-30T03:11:22.908Z,99.90
2022-08-30T03:12:56.750Z,99.90
2022-08-30T03:14:29.215Z,99.90
2022-08-30T03:16:01.795Z,99.90
2022-08-30T03:17:34.751Z,99.90
2022-08-30T03:19:06.939Z,99.90
2022-08-30T03:20:41.425Z,99.90
2022-08-30T03:22:16.920Z,99.90
2022-08-30T03:23:49.256Z,99.90
2022-08-30T03:25:22.295Z,99.90
2022-08-30T03:26:54.828Z,99.90
2022-08-30T03:28:27.327Z,99.90
2022-08-30T03:29:59.526Z,99.90
2022-08-30T03:31:31.777Z,99.90
2022-08-30T03:33:13.014Z,99.90
2022-08-30T03:34:45.718Z,99.90
2022-08-30T03:36:17.906Z,99.90
2022-08-30T03:37:50.299Z,99.90
2022-08-30T03:39:28.799Z,99.90
2022-08-30T03:41:01.127Z,99.90
2022-08-30T03:42:33.412Z,99.90
2022-08-30T03:44:05.773Z,99.90
2022-08-30T03:45:39.449Z,99.90
2022-08-30T03:47:12.372Z,99.90
2022-08-30T03:48:44.604Z,99.90
2022-08-30T03:50:16.872Z,99.90
2022-08-30T03:51:49.324Z,99.90
2022-08-30T03:53:22.252Z,99.90
2022-08-30T03:54:54.947Z,99.90
2022-08-30T03:56:27.432Z,99.90
2022-08-30T03:57:59.580Z,99.90
2022-08-30T03:59:32.494Z,99.90
2022-08-30T04:01:04.742Z,99.90
2022-08-30T04:02:37.778Z,99.90
2022-08-30T04:04:10.040Z,99.90
2022-08-30T04:05:42.447Z,99.90
2022-08-30T04:07:14.687Z,99.90
2022-08-30T04:08:46.943Z,99.90
2022-08-30T04:10:21.286Z,99.90
2022-08-30T04:11:54.075Z,99.90
2022-08-30T04:13:26.257Z,99.90
2022-08-30T04:14:58.935Z,99.90
2022-08-30T04:16:31.695Z,99.90
2022-08-30T04:18:04.216Z,99.90
2022-08-30T04:19:36.458Z,99.90
2022-08-30T04:21:11.345Z,99.90
2022-08-30T04:22:46.160Z,99.90
2022-08-30T04:24:18.608Z,99.90
2022-08-30T04:25:50.823Z,99.90
2022-08-30T04:27:23.007Z,1.00
2022-08-30T04:28:55.807Z,99.90
2022-08-30T04:30:28.660Z,99.90
2022-08-30T04:32:01.014Z,99.90
2022-08-30T04:33:35.553Z,1.00
2022-08-30T04:35:11.638Z,1.00
2022-08-30T04:36:48.111Z,1.00
2022-08-30T04:38:22.666Z,1.00
2022-08-30T04:40:00.552Z,1.00
2022-08-30T04:41:33.328Z,1.00
2022-08-30T04:43:05.683Z,1.00
2022-08-30T04:44:38.316Z,1.00
2022-08-30T04:46:11.031Z,1.00
2022-08-30T04:47:44.476Z,1.00
2022-08-30T04:49:16.909Z,1.00
2022-08-30T04:50:49.503Z,1.00
2022-08-30T04:52:21.659Z,1.00
2022-08-30T04:53:53.825Z,1.00
2022-08-30T04:55:26.625Z,1.00
2022-08-30T04:56:58.833Z,1.00
2022-08-30T04:58:30.988Z,1.00
2022-08-30T05:00:11.544Z,1.00
2022-08-30T05:01:45.520Z,1.00
2022-08-30T05:03:18.657Z,1.00
2022-08-30T05:05:09.287Z,1.00
2022-08-30T05:06:42.490Z,1.00
2022-08-30T05:08:21.054Z,1.00
2022-08-30T05:09:56.693Z,1.00
2022-08-30T05:11:29.779Z,1.00
2022-08-30T05:13:01.944Z,1.00
2022-08-30T05:14:34.827Z,1.00
2022-08-30T05:16:08.528Z,1.00
2022-08-30T05:17:42.118Z,1.00
2022-08-30T05:19:14.334Z,1.00
2022-08-30T05:20:46.888Z,1.00
2022-08-30T05:22:19.072Z,99.90
2022-08-30T05:23:54.923Z,99.90
2022-08-30T05:25:33.395Z,99.90
2022-08-30T05:27:06.389Z,99.90
2022-08-30T05:28:39.303Z,23.20
2022-08-30T05:30:14.315Z,1.00
2022-08-30T05:31:46.594Z,1.00
2022-08-30T05:33:19.015Z,1.00
2022-08-30T05:34:51.452Z,1.00
2022-08-30T05:36:29.220Z,1.00
2022-08-30T05:38:01.598Z,1.00
2022-08-30T05:39:51.003Z,1.00
2022-08-30T05:41:26.575Z,99.90
2022-08-30T05:43:00.256Z,1.00
2022-08-30T05:44:32.636Z,99.90
2022-08-30T05:46:12.410Z,1.00
2022-08-30T05:47:44.837Z,1.00
2022-08-30T05:49:17.228Z,99.90
2022-08-30T05:50:49.536Z,1.00
2022-08-30T05:52:22.133Z,99.90
2022-08-30T05:53:55.673Z,99.90
2022-08-30T05:55:27.925Z,31.20
2022-08-30T05:57:00.108Z,18.60
2022-08-30T05:58:33.612Z,95.20
2022-08-30T06:00:11.951Z,1.00
2022-08-30T06:01:47.111Z,1.00
2022-08-30T06:03:19.852Z,99.90
2022-08-30T06:04:52.254Z,1.00
2022-08-30T06:06:24.948Z,99.90
2022-08-30T06:07:57.160Z,1.00
2022-08-30T06:09:29.763Z,99.90
2022-08-30T06:11:02.175Z,25.00
2022-08-30T06:12:34.446Z,99.90
2022-08-30T06:14:07.339Z,99.90
2022-08-30T06:15:39.620Z,99.90
2022-08-30T06:17:12.203Z,99.90
2022-08-30T06:18:45.782Z,99.90
2022-08-30T06:20:20.994Z,99.90
2022-08-30T06:21:53.204Z,99.90
2022-08-30T06:23:25.915Z,99.90
2022-08-30T06:24:58.454Z,99.90
2022-08-30T06:28:11.000Z,99.90
2022-08-30T06:29:43.432Z,99.90
2022-08-30T06:31:19.933Z,99.90
2022-08-30T06:32:52.135Z,99.90
2022-08-30T06:34:24.407Z,99.90
2022-08-30T06:36:06.455Z,99.90
2022-08-30T06:37:38.820Z,99.90
2022-08-30T06:39:11.226Z,99.90
2022-08-30T06:40:43.714Z,99.90
2022-08-30T06:42:16.141Z,99.90
2022-08-30T06:43:49.450Z,99.90
2022-08-30T06:45:22.039Z,99.90
2022-08-30T06:46:54.356Z,99.90
2022-08-30T06:48:26.781Z,99.90
2022-08-30T06:49:59.361Z,99.90
2022-08-30T06:51:37.531Z,99.90
2022-08-30T06:53:11.967Z,99.90
2022-08-30T06:54:44.354Z,99.90
2022-08-30T06:56:17.731Z,99.90
2022-08-30T06:57:49.876Z,99.90
2022-08-30T06:59:22.073Z,99.90
2022-08-30T07:00:54.563Z,99.90
2022-08-30T07:02:26.902Z,99.90
2022-08-30T07:04:01.099Z,99.90
2022-08-30T07:05:33.364Z,99.90
2022-08-30T07:07:06.206Z,99.90
2022-08-30T07:08:39.216Z,99.90
2022-08-30T07:10:11.674Z,99.90
2022-08-30T07:11:44.736Z,99.90
2022-08-30T07:13:19.515Z,99.90
2022-08-30T07:14:51.824Z,99.90
2022-08-30T07:16:24.297Z,99.90
2022-08-30T07:18:15.164Z,99.90
2022-08-30T07:19:49.772Z,99.90
2022-08-30T07:21:44.408Z,99.90
2022-08-30T07:23:17.484Z,99.90
2022-08-30T07:24:50.308Z,99.90
2022-08-30T07:26:30.274Z,99.90
2022-08-30T07:28:05.644Z,99.90
2022-08-30T07:29:38.054Z,99.90
2022-08-30T07:31:11.929Z,99.90
2022-08-30T07:32:44.912Z,99.90
2022-08-30T07:34:19.299Z,99.90
2022-08-30T07:35:52.708Z,99.90
2022-08-30T07:37:25.813Z,99.90
2022-08-30T07:38:58.667Z,99.90
2022-08-30T07:40:30.954Z,99.90
2022-08-30T07:42:03.851Z,99.90
2022-08-30T07:43:37.622Z,99.90
2022-08-30T07:45:11.823Z,99.90
2022-08-30T07:46:44.124Z,99.90
2022-08-30T07:48:16.381Z,99.90
2022-08-30T07:49:48.902Z,99.50
2022-08-30T07:51:25.375Z,97.90
2022-08-30T07:52:57.675Z,96.40
2022-08-30T07:54:29.973Z,95.70
2022-08-30T07:56:04.867Z,95.70
2022-08-30T07:57:37.546Z,94.80
2022-08-30T07:59:09.747Z,93.70
2022-08-30T08:00:42.753Z,93.10
2022-08-30T08:02:15.338Z,92.20
2022-08-30T08:03:48.170Z,92.00
2022-08-30T08:05:24.612Z,92.10
2022-08-30T08:06:57.326Z,91.90
2022-08-30T08:08:30.674Z,91.70
2022-08-30T08:10:04.383Z,91.00
2022-08-30T08:11:37.112Z,90.00
2022-08-30T08:13:09.555Z,88.50
2022-08-30T08:14:42.107Z,88.70
2022-08-30T08:16:14.325Z,88.50
2022-08-30T08:17:49.591Z,88.00
2022-08-30T08:19:21.853Z,87.10
2022-08-30T08:20:54.271Z,87.00
2022-08-30T08:22:29.026Z,84.60
2022-08-30T08:24:01.300Z,83.10
2022-08-30T08:25:37.647Z,83.90
2022-08-30T08:27:10.087Z,84.40
2022-08-30T08:28:45.023Z,84.90
2022-08-30T08:30:19.940Z,83.20
2022-08-30T08:31:52.273Z,84.20
2022-08-30T08:33:25.035Z,83.90
2022-08-30T08:34:57.266Z,83.00
2022-08-30T08:36:31.244Z,82.10
2022-08-30T08:38:04.876Z,83.20
2022-08-30T08:39:37.538Z,83.60
2022-08-30T08:41:32.153Z,81.80
2022-08-30T08:43:20.193Z,81.00
2022-08-30T08:45:11.794Z,80.50
2022-08-30T08:47:00.640Z,80.80
2022-08-30T08:48:59.852Z,81.10
2022-08-30T08:50:33.495Z,80.50
2022-08-30T08:52:31.715Z,79.40
2022-08-30T08:54:17.787Z,79.20
2022-08-30T08:55:53.258Z,75.30
2022-08-30T08:57:29.527Z,76.10
2022-08-30T08:59:02.025Z,76.20
2022-08-30T09:00:34.728Z,75.20
2022-08-30T09:02:29.364Z,75.80
2022-08-30T09:04:10.274Z,77.40
2022-08-30T09:05:44.901Z,76.60
2022-08-30T09:07:42.498Z,76.30
2022-08-30T09:09:18.353Z,77.30
2022-08-30T09:11:05.745Z,78.00
2022-08-30T09:12:38.289Z,77.90
2022-08-30T09:14:30.345Z,78.80
2022-08-30T09:16:05.234Z,79.30
2022-08-30T09:18:04.644Z,79.30
2022-08-30T09:19:54.218Z,79.90
2022-08-30T09:21:28.881Z,80.50
2022-08-30T09:23:24.082Z,81.00
2022-08-30T09:25:13.488Z,81.10
2022-08-30T09:26:45.653Z,80.70
2022-08-30T09:28:28.847Z,80.20
2022-08-30T09:30:14.273Z,80.00
2022-08-30T09:32:10.053Z,79.00
2022-08-30T09:34:08.758Z,79.00
2022-08-30T09:35:49.107Z,79.10
2022-08-30T09:37:41.215Z,79.00
2022-08-30T09:39:19.097Z,78.40
2022-08-30T09:40:56.878Z,79.00
2022-08-30T09:42:31.133Z,78.80
2022-08-30T09:44:28.204Z,78.20
2022-08-30T09:46:00.886Z,76.50
2022-08-30T09:47:33.652Z,75.50
2022-08-30T09:49:43.790Z,74.80
2022-08-30T09:51:49.673Z,73.70
2022-08-30T09:53:33.351Z,72.80
2022-08-30T09:55:32.423Z,71.20
2022-08-30T09:57:34.142Z,70.00
2022-08-30T09:59:29.809Z,70.90
2022-08-30T10:01:24.392Z,70.90
2022-08-30T10:03:36.110Z,71.20
2022-08-30T10:05:56.567Z,71.90
2022-08-30T10:07:34.549Z,72.70
2022-08-30T10:09:23.059Z,73.20
2022-08-30T10:11:54.799Z,73.40
2022-08-30T10:14:05.728Z,71.60
2022-08-30T10:16:02.803Z,72.80
2022-08-30T10:17:41.839Z,72.60
2022-08-30T10:19:47.536Z,73.60
2022-08-30T10:21:43.930Z,74.60
2022-08-30T10:23:31.564Z,75.60
2022-08-30T10:25:26.494Z,76.40
2022-08-30T10:27:18.196Z,76.80
2022-08-30T10:29:02.594Z,77.40
2022-08-30T10:30:40.448Z,77.40
2022-08-30T10:32:31.086Z,78.30
2022-08-30T10:34:14.413Z,79.90
2022-08-30T10:35:55.352Z,79.90
2022-08-30T10:37:32.234Z,79.70
2022-08-30T10:39:09.497Z,80.30
2022-08-30T10:41:44.631Z,79.80
2022-08-30T10:43:55.006Z,79.70
2022-08-30T10:45:33.316Z,78.00
2022-08-30T10:47:42.514Z,78.50
2022-08-30T10:49:23.622Z,78.50
2022-08-30T10:51:03.863Z,79.30
2022-08-30T10:52:53.170Z,79.60
2022-08-30T10:54:58.997Z,80.10
2022-08-30T10:56:32.011Z,79.80
2022-08-30T10:58:06.761Z,79.90
2022-08-30T10:59:54.647Z,80.50
2022-08-30T11:02:10.015Z,80.90
2022-08-30T11:03:52.775Z,82.00
2022-08-30T11:05:42.909Z,81.70
2022-08-30T11:07:46.219Z,81.80
2022-08-30T11:09:37.988Z,81.90
2022-08-30T11:11:38.364Z,82.10
2022-08-30T11:13:21.289Z,81.70
2022-08-30T11:14:54.278Z,81.10
2022-08-30T11:16:43.788Z,81.40
2022-08-30T11:18:17.644Z,81.50
2022-08-30T11:19:56.844Z,81.70
2022-08-30T11:21:42.099Z,81.80
2022-08-30T11:23:33.935Z,81.00
2022-08-30T11:25:16.067Z,80.60
2022-08-30T11:27:00.715Z,80.50
2022-08-30T11:28:36.453Z,80.80
2022-08-30T11:30:38.164Z,81.40
2022-08-30T11:32:13.505Z,81.50
2022-08-30T11:33:53.642Z,81.00
2022-08-30T11:37:45.281Z,80.30
2022-08-30T11:39:47.231Z,81.00
2022-08-30T11:43:36.855Z,81.60
2022-08-30T11:45:26.763Z,83.30
2022-08-30T11:47:42.233Z,82.70
2022-08-30T11:49:15.050Z,82.80
2022-08-30T11:50:57.694Z,83.00
2022-08-30T11:52:50.603Z,83.40
2022-08-30T11:55:01.949Z,82.50
2022-08-30T11:57:06.687Z,81.30
2022-08-30T11:59:11.660Z,82.30
2022-08-30T12:00:52.578Z,84.00
2022-08-30T12:03:02.252Z,83.40
2022-08-30T12:04:46.217Z,82.60
2022-08-30T12:06:41.651Z,83.10
2022-08-30T12:08:33.518Z,83.30
2022-08-30T12:10:20.854Z,83.50
2022-08-30T12:12:06.555Z,83.30
2022-08-30T12:13:44.827Z,82.60
2022-08-30T12:15:54.718Z,82.80
2022-08-30T12:18:15.461Z,82.20
2022-08-30T12:19:50.604Z,81.50
2022-08-30T12:21:29.187Z,81.10
2022-08-30T12:23:24.471Z,80.60
2022-08-30T12:24:57.127Z,77.60
2022-08-30T12:26:35.971Z,77.40
2022-08-30T12:28:24.541Z,76.40
2022-08-30T12:30:06.532Z,76.30
2022-08-30T12:32:05.482Z,75.90
2022-08-30T12:33:46.479Z,70.40
2022-08-30T12:35:25.701Z,72.10
2022-08-30T12:37:10.815Z,71.30
2022-08-30T12:38:45.036Z,71.80
2022-08-30T12:40:23.000Z,69.80
2022-08-30T12:42:10.269Z,69.00
2022-08-30T12:43:52.088Z,67.20
2022-08-30T12:45:50.929Z,67.50
2022-08-30T12:48:03.529Z,67.50
2022-08-30T12:49:38.041Z,68.50
2022-08-30T12:51:42.529Z,69.00
2022-08-30T12:53:32.446Z,68.50
2022-08-30T12:55:17.244Z,69.10
2022-08-30T12:57:25.345Z,68.00
2022-08-30T12:58:59.875Z,67.80
2022-08-30T13:00:47.707Z,69.30
2022-08-30T13:02:28.373Z,68.80
2022-08-30T13:04:20.933Z,68.20
2022-08-30T13:05:54.551Z,68.90
2022-08-30T13:07:35.504Z,68.10
2022-08-30T13:09:08.973Z,66.60
2022-08-30T13:11:29.358Z,66.30
2022-08-30T13:13:06.760Z,67.80
2022-08-30T13:14:45.818Z,67.00
2022-08-30T13:16:18.248Z,66.00
2022-08-30T13:18:30.142Z,64.70
2022-08-30T13:20:22.054Z,63.50
2022-08-30T13:21:59.388Z,63.90
2022-08-30T13:23:31.605Z,63.90
2022-08-30T13:25:07.444Z,64.00
2022-08-30T13:26:41.197Z,64.80
2022-08-30T13:28:13.528Z,65.20
2022-08-30T13:29:45.851Z,65.70
2022-08-30T13:31:19.289Z,65.30
2022-08-30T13:32:52.711Z,65.30
2022-08-30T13:34:25.274Z,66.30
2022-08-30T13:35:57.713Z,67.20
2022-08-30T13:37:47.594Z,67.50
2022-08-30T13:39:24.358Z,68.40
2022-08-30T13:40:56.638Z,67.20
2022-08-30T13:42:32.223Z,69.10
2022-08-30T13:44:13.482Z,69.90
2022-08-30T13:45:46.977Z,68.00
2022-08-30T13:47:37.151Z,68.90
2022-08-30T13:51:12.238Z,66.50
2022-08-30T13:52:44.621Z,66.90
2022-08-30T13:54:18.780Z,67.30
2022-08-30T13:55:52.255Z,66.30
2022-08-30T13:59:23.174Z,66.10
2022-08-30T14:00:56.705Z,66.80
2022-08-30T14:02:29.589Z,67.10
2022-08-30T14:04:17.778Z,67.80
2022-08-30T14:06:15.792Z,67.50
2022-08-30T14:07:45.054Z,67.30
2022-08-30T14:09:17.547Z,66.50
2022-08-30T14:10:51.742Z,65.50
2022-08-30T14:12:53.044Z,64.00
2022-08-30T14:14:28.525Z,63.10
2022-08-30T14:16:27.389Z,62.90
2022-08-30T14:18:00.009Z,62.60
2022-08-30T14:19:32.305Z,62.10
2022-08-30T14:21:04.604Z,62.20
2022-08-30T14:22:38.379Z,62.60
2022-08-30T14:24:12.112Z,62.80
2022-08-30T14:25:45.760Z,62.20
2022-08-30T14:27:17.947Z,63.60
2022-08-30T14:28:51.628Z,63.30
2022-08-30T14:30:25.535Z,64.70
2022-08-30T14:32:00.067Z,64.70
2022-08-30T14:33:32.903Z,65.30
2022-08-30T14:35:06.907Z,66.00
2022-08-30T14:36:42.918Z,66.90
2022-08-30T14:38:15.410Z,67.20
2022-08-30T14:39:47.772Z,66.90
2022-08-30T14:41:20.276Z,66.70
2022-08-30T14:42:52.895Z,68.20
2022-08-30T14:44:26.528Z,68.80
2022-08-30T14:46:01.564Z,68.90
2022-08-30T14:47:34.314Z,67.40
2022-08-30T14:49:06.632Z,68.00
2022-08-30T14:50:40.714Z,67.90
2022-08-30T14:52:13.146Z,68.90
2022-08-30T14:53:47.729Z,69.10
2022-08-30T14:55:20.047Z,70.50
2022-08-30T14:58:39.471Z,73.20
2022-08-30T15:00:13.724Z,73.00
2022-08-30T15:01:47.282Z,74.00
2022-08-30T15:03:20.036Z,74.60
2022-08-30T15:04:52.499Z,74.30
2022-08-30T15:06:27.543Z,74.80
2022-08-30T15:08:00.200Z,75.00
2022-08-30T15:09:32.979Z,74.00
2022-08-30T15:11:13.547Z,74.50
2022-08-30T15:12:51.244Z,76.10
2022-08-30T15:14:26.568Z,75.70
2022-08-30T15:16:00.568Z,76.30
2022-08-30T15:17:32.935Z,75.10
2022-08-30T15:19:10.607Z,74.50
2022-08-30T15:20:50.375Z,74.60
2022-08-30T15:22:22.731Z,75.00
2022-08-30T15:23:54.989Z,72.90
2022-08-30T15:25:28.027Z,73.40
2022-08-30T15:27:02.167Z,73.80
2022-08-30T15:28:34.706Z,74.30
2022-08-30T15:30:08.563Z,74.10
2022-08-30T15:31:45.777Z,75.10
2022-08-30T15:33:24.017Z,75.40
2022-08-30T15:34:56.392Z,76.00
2022-08-30T15:36:30.065Z,76.40
2022-08-30T15:38:02.859Z,75.00
2022-08-30T15:39:35.582Z,76.50
2022-08-30T15:41:12.229Z,76.70
2022-08-30T15:42:45.160Z,76.50
2022-08-30T15:44:18.941Z,76.00
2022-08-30T15:45:54.395Z,76.20
2022-08-30T15:47:26.996Z,76.80
2022-08-30T15:49:22.128Z,76.30
2022-08-30T15:50:58.724Z,76.10
2022-08-30T15:52:31.589Z,76.40
2022-08-30T15:54:05.997Z,76.40
2022-08-30T15:55:38.413Z,75.50
2022-08-30T15:57:10.956Z,75.10
2022-08-30T15:58:44.915Z,75.20
2022-08-30T16:00:17.861Z,75.20
2022-08-30T16:01:50.322Z,75.30
2022-08-30T16:03:23.278Z,76.30
2022-08-30T16:04:55.512Z,76.90
2022-08-30T16:06:32.815Z,76.10
2022-08-30T16:08:05.676Z,76.30
2022-08-30T16:09:38.814Z,75.80
2022-08-30T16:11:16.950Z,76.00
2022-08-30T16:12:49.782Z,76.10
2022-08-30T16:14:22.050Z,76.40
2022-08-30T16:15:54.528Z,77.00
2022-08-30T16:17:26.830Z,77.50
2022-08-30T16:18:59.315Z,78.40
2022-08-30T16:20:32.067Z,78.90
2022-08-30T16:22:04.818Z,79.30
2022-08-30T16:23:40.499Z,79.40
2022-08-30T16:25:17.411Z,79.50
2022-08-30T16:26:50.938Z,79.80
2022-08-30T16:28:23.365Z,80.70
2022-08-30T16:29:55.577Z,81.00
2022-08-30T16:31:31.448Z,81.00
2022-08-30T16:33:04.019Z,82.00
2022-08-30T16:34:38.462Z,82.60
2022-08-30T16:36:12.010Z,83.00
2022-08-30T16:37:44.704Z,83.90
2022-08-30T16:39:17.625Z,84.80
2022-08-30T16:40:52.198Z,85.20
2022-08-30T16:42:25.588Z,85.80
2022-08-30T16:43:57.858Z,86.40
2022-08-30T16:45:34.362Z,86.90
2022-08-30T16:47:10.216Z,87.60
2022-08-30T16:48:47.022Z,88.80
2022-08-30T16:50:21.512Z,89.60
2022-08-30T16:51:54.819Z,90.40
2022-08-30T16:53:27.998Z,90.70
2022-08-30T16:55:00.956Z,90.90
2022-08-30T16:56:35.772Z,91.50
2022-08-30T16:58:11.783Z,91.80
2022-08-30T16:59:49.544Z,92.60
2022-08-30T17:01:25.089Z,93.20
2022-08-30T17:02:57.441Z,94.30
2022-08-30T17:04:29.750Z,95.20
2022-08-30T17:06:02.340Z,95.60
2022-08-30T17:07:36.423Z,95.20
2022-08-30T17:09:09.401Z,94.30
2022-08-30T17:10:43.802Z,94.30
2022-08-30T17:12:19.833Z,94.50
2022-08-30T17:13:52.593Z,95.00
2022-08-30T17:15:27.164Z,96.00
2022-08-30T17:17:01.404Z,96.00
2022-08-30T17:18:35.997Z,96.30
2022-08-30T17:20:10.829Z,96.80
2022-08-30T17:21:43.012Z,97.20
2022-08-30T17:23:15.995Z,97.30
2022-08-30T17:24:48.919Z,97.70
2022-08-30T17:26:21.310Z,98.10
2022-08-30T17:27:54.043Z,98.50
2022-08-30T17:29:26.480Z,99.20
2022-08-30T17:30:59.346Z,99.70
2022-08-30T17:32:31.743Z,99.90
2022-08-30T17:34:05.789Z,99.90
2022-08-30T17:35:38.583Z,99.90
2022-08-30T17:37:11.429Z,99.90
2022-08-30T17:38:45.042Z,99.90
2022-08-30T17:40:19.612Z,99.90
2022-08-30T17:41:52.781Z,99.90
2022-08-30T17:43:25.356Z,99.90
2022-08-30T17:44:59.447Z,99.90
2022-08-30T17:46:36.051Z,99.90
2022-08-30T17:48:08.642Z,99.90
2022-08-30T17:49:41.307Z,99.90
2022-08-30T17:51:14.606Z,99.90
2022-08-30T17:52:47.747Z,99.90
2022-08-30T17:54:21.046Z,99.90
2022-08-30T17:55:57.462Z,99.90
2022-08-30T17:57:30.883Z,99.90
2022-08-30T17:59:07.924Z,99.90
2022-08-30T18:00:41.513Z,99.90
2022-08-30T18:02:15.266Z,99.90
2022-08-30T18:03:57.661Z,99.90
2022-08-30T18:05:35.008Z,99.90
2022-08-30T18:07:14.745Z,99.90
2022-08-30T18:08:47.655Z,99.90
2022-08-30T18:10:19.898Z,99.90
2022-08-30T18:12:00.806Z,99.90
2022-08-30T18:13:34.169Z,99.90
2022-08-30T18:15:12.367Z,99.90
2022-08-30T18:16:50.023Z,99.90
2022-08-30T18:18:27.279Z,99.90
2022-08-30T18:20:00.089Z,99.90
2022-08-30T18:21:36.813Z,99.90
2022-08-30T18:23:10.476Z,99.90
2022-08-30T18:24:44.603Z,99.90
2022-08-30T18:26:17.474Z,99.90
2022-08-30T18:27:57.135Z,99.90
2022-08-30T18:29:31.683Z,99.90
2022-08-30T18:31:04.187Z,99.90
2022-08-30T18:32:38.115Z,99.90
2022-08-30T18:34:12.186Z,99.90
2022-08-30T18:35:48.209Z,99.90
2022-08-30T18:37:20.790Z,99.90
2022-08-30T18:38:57.407Z,99.90
2022-08-30T18:40:30.495Z,99.90
2022-08-30T18:42:06.361Z,99.90
2022-08-30T18:43:38.717Z,99.90
2022-08-30T18:45:14.749Z,99.90
2022-08-30T18:46:56.653Z,99.90
2022-08-30T18:48:29.621Z,99.90
2022-08-30T18:50:01.901Z,99.90
2022-08-30T18:51:34.356Z,99.90
2022-08-30T18:53:07.764Z,99.90
2022-08-30T18:54:52.332Z,99.90
2022-08-30T18:56:27.274Z,99.90
2022-08-30T18:58:02.536Z,99.90
2022-08-30T18:59:36.743Z,99.90
2022-08-30T19:01:10.204Z,99.90
2022-08-30T19:02:47.182Z,99.90
2022-08-30T19:04:22.489Z,99.90
2022-08-30T19:06:06.605Z,99.90
2022-08-30T19:07:40.559Z,99.90
2022-08-30T19:09:12.925Z,99.90
2022-08-30T19:10:45.179Z,99.90
2022-08-30T19:12:17.831Z,99.90
2022-08-30T19:13:51.508Z,99.90
2022-08-30T19:15:23.782Z,99.90
2022-08-30T19:16:56.580Z,99.90
2022-08-30T19:18:29.106Z,99.90
2022-08-30T19:20:01.944Z,99.90
2022-08-30T19:21:34.202Z,99.90
2022-08-30T19:23:09.058Z,99.90
2022-08-30T19:24:43.495Z,99.90
2022-08-30T19:26:16.227Z,99.90
2022-08-30T19:27:49.106Z,99.90
2022-08-30T19:29:23.404Z,99.90
2022-08-30T19:30:56.736Z,99.90
2022-08-30T19:32:29.012Z,99.90
2022-08-30T19:34:01.394Z,99.90
2022-08-30T19:35:33.938Z,99.90
2022-08-30T19:37:06.374Z,99.90
2022-08-30T19:38:39.010Z,99.90
2022-08-30T19:40:15.330Z,99.90
2022-08-30T19:41:47.753Z,99.90
2022-08-30T19:43:20.257Z,99.90
2022-08-30T19:44:53.065Z,99.90
2022-08-30T19:46:25.261Z,99.90
2022-08-30T19:47:59.085Z,99.90
2022-08-30T19:49:33.342Z,99.90
2022-08-30T19:51:11.229Z,99.90
2022-08-30T19:52:52.737Z,99.90
2022-08-30T19:54:26.747Z,99.90
2022-08-30T19:56:00.225Z,99.90
2022-08-30T19:57:32.818Z,99.90
2022-08-30T19:59:05.251Z,99.90
2022-08-30T20:00:39.199Z,99.90
2022-08-30T20:02:17.609Z,99.90
2022-08-30T20:03:51.926Z,99.90
2022-08-30T20:05:24.246Z,99.90
2022-08-30T20:06:56.579Z,99.90
2022-08-30T20:08:29.656Z,99.90
2022-08-30T20:10:09.062Z,99.90
2022-08-30T20:11:42.869Z,99.90
2022-08-30T20:13:16.316Z,99.90
2022-08-30T20:14:49.164Z,99.90
2022-08-30T20:16:21.750Z,99.90
2022-08-30T20:18:14.330Z,99.90
2022-08-30T20:19:47.752Z,99.90
2022-08-30T20:21:20.837Z,99.90
2022-08-30T20:22:54.281Z,99.90
2022-08-30T20:24:28.196Z,99.90
2022-08-30T20:26:03.528Z,99.90
2022-08-30T20:27:39.796Z,99.90
2022-08-30T20:29:12.943Z,99.90
2022-08-30T20:30:45.213Z,99.90
2022-08-30T20:32:17.965Z,99.90
2022-08-30T20:33:51.699Z,99.90
2022-08-30T20:35:24.283Z,99.90
2022-08-30T20:36:57.890Z,99.90
2022-08-30T20:38:30.394Z,99.90
2022-08-30T20:40:04.667Z,99.90
2022-08-30T20:41:38.121Z,99.90
2022-08-30T20:43:13.550Z,99.90
2022-08-30T20:44:45.814Z,99.90
2022-08-30T20:46:20.761Z,99.90
2022-08-30T20:47:53.819Z,99.90
2022-08-30T20:49:26.020Z,99.90
2022-08-30T20:50:58.402Z,99.90
2022-08-30T20:52:30.936Z,99.90
2022-08-30T20:54:03.384Z,99.90
2022-08-30T20:55:41.405Z,99.90
2022-08-30T20:57:13.606Z,99.90
2022-08-30T20:58:46.746Z,99.90
2022-08-30T21:00:19.373Z,99.90
2022-08-30T21:01:52.082Z,99.90
2022-08-30T21:03:27.993Z,99.90
2022-08-30T21:05:00.948Z,99.90
2022-08-30T21:06:37.478Z,99.90
2022-08-30T21:08:10.284Z,99.90